Time;durP1;ratioP1;P1;durP2;ratioP2;P2;SDS_P1;SDS_P2;PMS_P1;PMS_P2;Temp;Humidity;BMP_temperature;BMP_pressure;BME280_temperature;BME280_humidity;BME280_pressure;Samples;Min_cycle;Max_cycle;Signal;HPM_P1;HPM_P2
2021/05/08 00:01:55;;;;;;;7.68;2.72;;;13.10;68.60;;;;;;4998335;28;20038;-76
2021/05/08 00:04:20;;;;;;;8.90;2.45;;;13.10;68.40;;;;;;4998132;28;20493;-76
2021/05/08 00:06:46;;;;;;;8.00;2.58;;;13.10;68.90;;;;;;4998049;28;20664;-76
2021/05/08 00:09:13;;;;;;;8.75;2.72;;;13.10;69.30;;;;;;4998266;28;20030;-76
2021/05/08 00:11:40;;;;;;;7.43;2.90;;;13.10;69.00;;;;;;4998007;28;20117;-76
2021/05/08 00:14:06;;;;;;;7.18;2.75;;;13.10;69.00;;;;;;4997936;28;20058;-76
2021/05/08 00:16:32;;;;;;;10.63;3.00;;;13.10;70.30;;;;;;4997903;28;20042;-76
2021/05/08 00:18:58;;;;;;;8.30;3.13;;;13.10;69.70;;;;;;4998087;28;20050;-76
2021/05/08 00:21:24;;;;;;;8.73;3.13;;;13.10;69.70;;;;;;4997907;28;20038;-76
2021/05/08 00:23:50;;;;;;;4.72;2.58;;;13.00;69.90;;;;;;4997958;28;20101;-76
2021/05/08 00:26:16;;;;;;;7.78;3.10;;;13.10;70.30;;;;;;4997615;28;20081;-76
2021/05/08 00:28:41;;;;;;;5.70;2.97;;;13.10;71.50;;;;;;4998034;28;20046;-76
2021/05/08 00:31:07;;;;;;;8.68;3.10;;;13.00;70.90;;;;;;4997659;28;20050;-76
2021/05/08 00:33:33;;;;;;;7.10;3.08;;;13.10;71.00;;;;;;4998718;28;20033;-76
2021/05/08 00:35:59;;;;;;;7.90;3.50;;;13.00;71.30;;;;;;5001773;28;20061;-76
2021/05/08 00:38:25;;;;;;;6.28;3.05;;;13.10;71.50;;;;;;5001971;28;20079;-76
2021/05/08 00:40:51;;;;;;;7.55;3.10;;;13.10;72.00;;;;;;5001471;28;20031;-76
2021/05/08 00:43:16;;;;;;;9.70;3.72;;;13.10;71.00;;;;;;5001721;28;20049;-76
2021/05/08 00:45:43;;;;;;;12.60;3.97;;;13.10;71.60;;;;;;5001544;28;20030;-75
2021/05/08 00:48:13;;;;;;;9.23;3.70;;;13.10;71.90;;;;;;5001830;28;20058;-76
2021/05/08 00:50:39;;;;;;;8.60;3.30;;;13.10;72.50;;;;;;5001501;28;20366;-76
2021/05/08 00:53:08;;;;;;;7.88;4.00;;;13.10;72.70;;;;;;5001672;28;20388;-76
2021/05/08 00:55:35;;;;;;;7.75;3.30;;;13.10;72.80;;;;;;5001199;28;20030;-76
2021/05/08 00:58:01;;;;;;;8.20;3.90;;;13.10;72.80;;;;;;5001570;28;20019;-76
2021/05/08 01:00:28;;;;;;;11.50;3.92;;;13.10;72.10;;;;;;5001203;28;20037;-76
2021/05/08 01:02:56;;;;;;;14.23;4.18;;;13.10;71.50;;;;;;5001460;28;20511;-76
2021/05/08 01:05:22;;;;;;;9.13;3.97;;;13.20;71.60;;;;;;5001213;28;20085;-76
2021/05/08 01:07:48;;;;;;;8.90;3.88;;;13.20;71.20;;;;;;5001414;28;20068;-76
2021/05/08 01:10:15;;;;;;;10.70;4.10;;;13.20;71.70;;;;;;5001002;28;20030;-76
2021/05/08 01:12:42;;;;;;;11.07;4.05;;;13.20;71.50;;;;;;5001312;28;20033;-76
2021/05/08 01:15:10;;;;;;;8.55;4.00;;;13.20;71.80;;;;;;5000853;28;20018;-76
2021/05/08 01:17:38;;;;;;;10.55;5.10;;;13.20;71.50;;;;;;5000959;28;20382;-76
2021/05/08 01:20:07;;;;;;;14.60;5.65;;;13.30;73.30;;;;;;5000973;28;20071;-77
2021/05/08 01:22:33;;;;;;;12.93;4.57;;;13.30;73.00;;;;;;5000776;28;20026;-76
2021/05/08 01:24:59;;;;;;;7.78;4.43;;;13.30;72.60;;;;;;5000738;28;20081;-76
2021/05/08 01:27:25;;;;;;;14.15;5.10;;;13.30;72.90;;;;;;5000861;28;20022;-76
2021/05/08 01:29:51;;;;;;;10.48;4.70;;;13.30;72.90;;;;;;5000686;28;20018;-76
2021/05/08 01:32:17;;;;;;;9.32;4.20;;;13.40;73.60;;;;;;5001077;28;20034;-76
2021/05/08 01:34:43;;;;;;;13.82;4.85;;;13.30;72.60;;;;;;5000723;28;20034;-76
2021/05/08 01:37:09;;;;;;;9.05;4.45;;;13.40;73.30;;;;;;5000950;28;20022;-76
2021/05/08 01:39:35;;;;;;;13.20;5.03;;;13.40;73.00;;;;;;5000376;28;20038;-76
2021/05/08 01:42:01;;;;;;;15.30;5.32;;;13.40;73.00;;;;;;4983203;28;20019;-76
2021/05/08 01:44:27;;;;;;;12.50;5.43;;;13.40;73.80;;;;;;5000270;28;20018;-76
2021/05/08 01:46:54;;;;;;;13.07;5.20;;;13.50;73.40;;;;;;5000604;28;20109;-76
2021/05/08 01:49:20;;;;;;;15.35;5.35;;;13.50;74.10;;;;;;5000453;28;20038;-76
2021/05/08 01:51:46;;;;;;;11.98;5.68;;;13.50;73.40;;;;;;5000814;28;20026;-76
2021/05/08 01:54:16;;;;;;;12.10;4.90;;;13.50;73.40;;;;;;5000249;28;20081;-76
2021/05/08 01:56:43;;;;;;;17.42;6.20;;;13.50;72.90;;;;;;5000343;28;20027;-76
2021/05/08 01:59:09;;;;;;;11.98;5.38;;;13.50;74.60;;;;;;5000456;28;20042;-75
2021/05/08 02:01:35;;;;;;;12.43;5.68;;;13.60;73.10;;;;;;5000307;28;20106;-76
2021/05/08 02:04:01;;;;;;;15.43;6.15;;;13.60;73.40;;;;;;4982716;28;20087;-76
2021/05/08 02:06:27;;;;;;;11.80;5.78;;;13.60;72.40;;;;;;5000463;28;20043;-76
2021/05/08 02:08:53;;;;;;;11.70;4.95;;;13.60;72.50;;;;;;5000113;28;20105;-76
2021/05/08 02:11:19;;;;;;;15.02;6.43;;;13.60;72.20;;;;;;5000147;28;20045;-75
2021/05/08 02:13:44;;;;;;;13.48;6.13;;;13.70;72.60;;;;;;5000005;28;20022;-76
2021/05/08 02:16:10;;;;;;;11.43;6.13;;;13.70;72.60;;;;;;4999873;28;20049;-76
2021/05/08 02:18:36;;;;;;;17.08;6.70;;;13.70;73.30;;;;;;5000223;28;20428;-76
2021/05/08 02:21:02;;;;;;;12.02;5.55;;;13.70;74.10;;;;;;5000151;28;20030;-76
2021/05/08 02:23:28;;;;;;;13.57;5.93;;;13.70;74.00;;;;;;4999708;28;20026;-76
2021/05/08 02:25:54;;;;;;;14.45;5.65;;;13.70;73.10;;;;;;4999855;28;20037;-76
2021/05/08 02:28:20;;;;;;;14.45;6.97;;;13.80;73.20;;;;;;4999786;28;20030;-76
2021/05/08 02:30:46;;;;;;;11.52;6.07;;;13.80;73.70;;;;;;4999948;28;20544;-76
2021/05/08 02:33:12;;;;;;;16.35;6.63;;;13.80;73.10;;;;;;4999662;28;20027;-76
2021/05/08 02:35:38;;;;;;;14.15;6.25;;;13.80;73.20;;;;;;4999832;28;20093;-76
2021/05/08 02:38:05;;;;;;;14.55;6.20;;;13.80;72.90;;;;;;4999542;28;20094;-76
2021/05/08 02:40:33;;;;;;;13.93;6.05;;;13.80;73.20;;;;;;4999499;28;20027;-76
2021/05/08 02:42:59;;;;;;;13.25;7.20;;;13.90;73.20;;;;;;4999511;28;20026;-76
2021/05/08 02:45:26;;;;;;;14.77;6.60;;;13.90;73.20;;;;;;4999474;28;20021;-75
2021/05/08 02:47:52;;;;;;;12.60;6.57;;;13.90;72.90;;;;;;4999602;28;20117;-76
2021/05/08 02:50:20;;;;;;;13.98;6.63;;;13.90;71.70;;;;;;4999534;28;20073;-76
2021/05/08 02:52:46;;;;;;;11.68;5.85;;;13.90;71.60;;;;;;4999452;28;20064;-76
2021/05/08 02:55:14;;;;;;;14.35;6.53;;;13.90;72.00;;;;;;4999072;28;20030;-76
2021/05/08 02:57:39;;;;;;;13.98;6.43;;;14.00;71.20;;;;;;4981286;28;20452;-76
2021/05/08 03:00:08;;;;;;;12.52;6.90;;;14.00;71.20;;;;;;4999057;28;20097;-76
2021/05/08 03:02:34;;;;;;;15.10;6.22;;;14.00;71.60;;;;;;4999358;28;20026;-76
2021/05/08 03:05:01;;;;;;;13.77;6.60;;;14.00;71.00;;;;;;4998981;28;20046;-76
2021/05/08 03:07:26;;;;;;;12.20;5.65;;;14.00;70.90;;;;;;4999153;28;20030;-76
2021/05/08 03:09:52;;;;;;;14.13;6.30;;;14.10;70.90;;;;;;4998782;28;20020;-76
2021/05/08 03:12:18;;;;;;;15.68;7.03;;;14.10;70.30;;;;;;4999131;28;20034;-76
2021/05/08 03:14:44;;;;;;;10.38;5.78;;;14.10;71.30;;;;;;4998656;28;20093;-76
2021/05/08 03:17:10;;;;;;;11.57;6.50;;;14.10;70.90;;;;;;4998815;28;20529;-76
2021/05/08 03:19:36;;;;;;;14.75;6.85;;;14.10;71.30;;;;;;4981307;28;20033;-77
2021/05/08 03:22:03;;;;;;;15.93;6.10;;;14.10;71.50;;;;;;4998928;28;20384;-75
2021/05/08 03:24:29;;;;;;;12.52;5.97;;;14.10;70.90;;;;;;4998366;28;20085;-76
2021/05/08 03:26:55;;;;;;;15.70;6.35;;;14.10;71.50;;;;;;4998823;28;20046;-76
2021/05/08 03:29:21;;;;;;;12.70;6.82;;;14.10;70.60;;;;;;4998445;28;20429;-76
2021/05/08 03:31:47;;;;;;;14.02;6.05;;;14.10;71.00;;;;;;4998868;28;20109;-76
2021/05/08 03:34:12;;;;;;;16.05;6.97;;;14.10;70.80;;;;;;4998430;28;20026;-76
2021/05/08 03:36:38;;;;;;;14.52;6.82;;;14.10;71.40;;;;;;4998784;28;20061;-76
2021/05/08 03:39:05;;;;;;;14.23;6.20;;;14.10;71.50;;;;;;4998378;28;20046;-76
2021/05/08 03:41:31;;;;;;;16.73;6.88;;;14.20;71.60;;;;;;4998518;28;20034;-76
2021/05/08 03:43:56;;;;;;;25.15;8.77;;;14.20;71.80;;;;;;4998323;28;20481;-76
2021/05/08 03:46:23;;;;;;;19.00;7.63;;;14.10;72.50;;;;;;4998522;28;20036;-76
2021/05/08 03:48:49;;;;;;;21.38;8.32;;;14.20;72.30;;;;;;4998225;28;20026;-76
2021/05/08 03:51:15;;;;;;;16.55;7.68;;;14.20;72.10;;;;;;4998500;28;20057;-76
2021/05/08 03:53:41;;;;;;;16.65;7.35;;;14.20;73.40;;;;;;4998202;28;20061;-76
2021/05/08 03:56:08;;;;;;;22.80;8.18;;;14.20;73.60;;;;;;4998105;28;20026;-76
2021/05/08 03:58:34;;;;;;;17.27;8.45;;;14.20;73.90;;;;;;4998341;28;20031;-76
2021/05/08 04:00:59;;;;;;;15.65;7.55;;;14.30;74.00;;;;;;4998313;28;20105;-76
2021/05/08 04:03:27;;;;;;;21.55;8.05;;;14.20;74.00;;;;;;4998314;28;20038;-76
2021/05/08 04:05:53;;;;;;;19.45;7.55;;;14.30;74.50;;;;;;4998489;28;20030;-76
2021/05/08 04:08:19;;;;;;;21.25;9.05;;;14.30;75.10;;;;;;4997183;28;20026;-76
2021/05/08 04:10:46;;;;;;;24.23;10.15;;;14.30;75.30;;;;;;4997975;28;20023;-76
2021/05/08 04:13:16;;;;;;;22.33;8.70;;;14.30;76.10;;;;;;4998013;28;20501;-76
2021/05/08 04:15:43;;;;;;;25.75;9.57;;;14.30;75.70;;;;;;4997773;28;20049;-76
2021/05/08 04:18:09;;;;;;;20.77;9.10;;;14.30;76.00;;;;;;4998082;28;20030;-77
2021/05/08 04:20:35;;;;;;;25.70;9.63;;;14.30;75.80;;;;;;4980561;28;20038;-76
2021/05/08 04:23:01;;;;;;;21.55;8.80;;;14.30;76.60;;;;;;4997657;28;20014;-76
2021/05/08 04:25:27;;;;;;;22.83;9.65;;;14.30;76.90;;;;;;4980361;28;20539;-76
2021/05/08 04:27:53;;;;;;;28.40;10.05;;;14.30;76.50;;;;;;4997711;28;20112;-76
2021/05/08 04:30:19;;;;;;;29.15;10.73;;;14.30;76.30;;;;;;4997997;28;20054;-76
2021/05/08 04:32:45;;;;;;;29.42;10.63;;;14.30;76.80;;;;;;4997755;28;20612;-77
2021/05/08 04:35:12;;;;;;;22.88;9.18;;;14.30;76.70;;;;;;4997965;28;20038;-76
2021/05/08 04:37:37;;;;;;;22.13;8.60;;;14.40;76.70;;;;;;4997838;28;20026;-76
2021/05/08 04:40:05;;;;;;;23.98;8.93;;;14.30;76.50;;;;;;4997742;28;20030;-77
2021/05/08 04:42:30;;;;;;;26.08;9.65;;;14.30;77.30;;;;;;4997809;28;20015;-76
2021/05/08 04:44:56;;;;;;;25.92;10.15;;;14.40;78.00;;;;;;4997568;28;20441;-77
2021/05/08 04:47:22;;;;;;;23.38;8.52;;;14.30;77.80;;;;;;4997694;28;20096;-77
2021/05/08 04:49:48;;;;;;;20.05;8.05;;;14.30;78.00;;;;;;4997748;28;20057;-76
2021/05/08 04:52:14;;;;;;;21.10;8.05;;;14.30;78.90;;;;;;4980413;28;20050;-76
2021/05/08 04:54:40;;;;;;;21.48;8.50;;;14.30;77.70;;;;;;4997440;28;20514;-76
2021/05/08 04:57:06;;;;;;;18.52;8.40;;;14.30;77.10;;;;;;4997799;28;20034;-76
2021/05/08 04:59:32;;;;;;;21.00;8.15;;;14.30;77.10;;;;;;4997747;28;20038;-76
2021/05/08 05:01:57;;;;;;;15.40;7.57;;;14.40;78.40;;;;;;4997553;28;20026;-76
2021/05/08 05:04:23;;;;;;;17.35;7.78;;;14.30;78.30;;;;;;4980084;28;20042;-76
2021/05/08 05:06:49;;;;;;;15.82;7.50;;;14.30;78.20;;;;;;4997504;28;20053;-76
2021/05/08 05:09:15;;;;;;;13.48;5.93;;;14.30;78.90;;;;;;4997763;28;20056;-77
2021/05/08 05:11:40;;;;;;;12.05;5.72;;;14.40;78.40;;;;;;4997202;28;20025;-76
2021/05/08 05:14:06;;;;;;;11.18;5.88;;;14.30;78.00;;;;;;4997447;28;20022;-77
2021/05/08 05:16:32;;;;;;;12.52;5.95;;;14.40;78.00;;;;;;4997293;28;20413;-77
2021/05/08 05:18:58;;;;;;;13.23;5.85;;;14.40;79.00;;;;;;4997514;28;20105;-77
2021/05/08 05:21:24;;;;;;;12.45;5.18;;;14.40;79.20;;;;;;5000817;28;20022;-77
2021/05/08 05:23:50;;;;;;;11.23;5.38;;;14.40;79.80;;;;;;4983537;28;20065;-77
2021/05/08 05:26:15;;;;;;;11.23;4.68;;;14.40;78.70;;;;;;5000649;28;20080;-77
2021/05/08 05:28:41;;;;;;;9.80;4.55;;;14.40;78.70;;;;;;5000893;28;20026;-78
2021/05/08 05:31:07;;;;;;;9.48;4.38;;;14.40;78.90;;;;;;5000744;28;20018;-77
2021/05/08 05:33:33;;;;;;;10.10;4.10;;;14.40;78.50;;;;;;5001146;28;20033;-77
2021/05/08 05:35:58;;;;;;;10.15;4.28;;;14.50;78.60;;;;;;4983421;28;20018;-77
2021/05/08 05:38:25;;;;;;;9.77;4.22;;;14.50;79.20;;;;;;4983506;28;20030;-78
2021/05/08 05:40:55;;;;;;;7.07;3.30;;;14.50;78.30;;;;;;5000553;28;20030;-77
2021/05/08 05:43:22;;;;;;;7.72;4.22;;;14.60;78.70;;;;;;5000629;28;20023;-77
2021/05/08 05:45:48;;;;;;;10.15;4.30;;;14.60;78.70;;;;;;5000470;28;20157;-77
2021/05/08 05:48:14;;;;;;;8.68;3.70;;;14.60;78.30;;;;;;4983232;28;20041;-77
2021/05/08 05:50:42;;;;;;;9.13;3.95;;;14.70;78.10;;;;;;5000508;28;20018;-76
2021/05/08 05:53:08;;;;;;;8.05;4.07;;;14.70;78.20;;;;;;5000619;28;20432;-76
2021/05/08 05:55:34;;;;;;;9.18;4.78;;;14.70;78.50;;;;;;4982655;28;20030;-76
2021/05/08 05:58:00;;;;;;;7.40;3.88;;;14.80;78.30;;;;;;5000695;28;20069;-77
2021/05/08 06:00:26;;;;;;;8.63;3.95;;;14.80;77.80;;;;;;5000376;28;20045;-77
2021/05/08 06:02:52;;;;;;;8.00;4.40;;;14.80;77.80;;;;;;5000588;28;20030;-77
2021/05/08 06:05:18;;;;;;;7.93;3.78;;;14.90;78.00;;;;;;5000214;28;20026;-76
2021/05/08 06:07:44;;;;;;;7.35;4.00;;;14.90;77.50;;;;;;5000435;28;20117;-77
2021/05/08 06:10:11;;;;;;;9.80;4.28;;;14.90;77.80;;;;;;4982338;28;20112;-77
2021/05/08 06:12:38;;;;;;;10.55;4.28;;;14.90;77.30;;;;;;4998897;28;20030;-76
2021/05/08 06:15:08;;;;;;;10.55;4.55;;;14.90;77.20;;;;;;5000146;28;20109;-77
2021/05/08 06:17:35;;;;;;;8.95;4.25;;;15.00;77.20;;;;;;4999800;28;20125;-76
2021/05/08 06:20:01;;;;;;;12.55;4.70;;;15.00;77.20;;;;;;4999941;28;20433;-77
2021/05/08 06:22:27;;;;;;;11.65;4.57;;;15.00;77.20;;;;;;4999822;28;20050;-77
2021/05/08 06:24:53;;;;;;;12.90;5.25;;;15.00;76.90;;;;;;5000054;28;20027;-77
2021/05/08 06:27:19;;;;;;;8.88;4.30;;;15.10;76.60;;;;;;5000228;28;20432;-77
2021/05/08 06:29:44;;;;;;;12.20;4.25;;;15.10;77.10;;;;;;4999692;28;20034;-76
2021/05/08 06:32:10;;;;;;;10.15;5.18;;;15.10;76.00;;;;;;4998995;28;20557;-77
2021/05/08 06:34:36;;;;;;;9.55;4.85;;;15.20;76.50;;;;;;4999761;28;20102;-77
2021/05/08 06:37:02;;;;;;;12.02;4.57;;;15.20;76.40;;;;;;4999891;28;20053;-77
2021/05/08 06:39:31;;;;;;;13.45;4.90;;;15.20;76.10;;;;;;4999349;28;20077;-76
2021/05/08 06:41:58;;;;;;;14.98;5.25;;;15.30;76.40;;;;;;4982383;28;20492;-77
2021/05/08 06:44:24;;;;;;;12.95;5.28;;;15.30;76.50;;;;;;4982120;28;20027;-77
2021/05/08 06:46:54;;;;;;;13.32;5.22;;;15.40;76.10;;;;;;4999439;28;20374;-77
2021/05/08 06:49:21;;;;;;;16.65;5.68;;;15.40;76.30;;;;;;4999449;28;20027;-77
2021/05/08 06:51:46;;;;;;;15.95;4.85;;;15.40;76.10;;;;;;4999438;28;20030;-76
2021/05/08 06:54:12;;;;;;;16.10;4.32;;;15.50;75.60;;;;;;4999016;28;20010;-76
2021/05/08 06:56:38;;;;;;;10.75;4.15;;;15.50;75.60;;;;;;4999480;28;20041;-76
2021/05/08 06:59:04;;;;;;;10.73;4.68;;;15.50;75.40;;;;;;4998994;28;20026;-77
2021/05/08 07:01:30;;;;;;;11.23;4.57;;;15.60;75.40;;;;;;4999301;28;20035;-77
2021/05/08 07:03:56;;;;;;;9.38;4.03;;;15.60;75.10;;;;;;4998999;28;20073;-77
2021/05/08 07:06:25;;;;;;;13.82;4.40;;;15.60;74.90;;;;;;4999078;28;20034;-77
2021/05/08 07:08:52;;;;;;;11.50;4.75;;;15.60;74.90;;;;;;4998962;28;20030;-77
2021/05/08 07:11:18;;;;;;;12.93;4.97;;;15.70;75.00;;;;;;4998843;28;20036;-77
2021/05/08 07:13:44;;;;;;;17.95;4.50;;;15.80;75.00;;;;;;4999104;28;20085;-77
2021/05/08 07:16:10;;;;;;;12.80;4.40;;;15.90;74.90;;;;;;4998896;28;20050;-77
2021/05/08 07:18:35;;;;;;;10.57;3.72;;;16.00;74.60;;;;;;4981633;28;20026;-77
2021/05/08 07:21:02;;;;;;;13.55;4.68;;;16.10;74.10;;;;;;4998807;28;20370;-77
2021/05/08 07:23:27;;;;;;;13.60;4.13;;;16.20;74.90;;;;;;4998357;28;20057;-78
2021/05/08 07:25:53;;;;;;;8.38;3.67;;;16.30;73.90;;;;;;4998746;28;20477;-76
2021/05/08 07:28:21;;;;;;;11.75;4.15;;;16.40;73.40;;;;;;4998676;28;20103;-79
2021/05/08 07:30:48;;;;;;;11.38;3.92;;;16.40;72.90;;;;;;4998663;28;20025;-80
2021/05/08 07:33:16;;;;;;;12.30;4.40;;;16.50;72.90;;;;;;4981146;28;20034;-78
2021/05/08 07:35:43;;;;;;;11.15;3.53;;;16.50;72.70;;;;;;4998557;28;20014;-83
2021/05/08 07:38:09;;;;;;;10.50;3.70;;;16.60;72.40;;;;;;4981515;28;20117;-75
2021/05/08 07:40:36;;;;;;;12.45;3.58;;;16.60;72.20;;;;;;4981179;28;20025;-77
2021/05/08 07:43:02;;;;;;;15.27;4.97;;;16.60;71.90;;;;;;4998102;28;20433;-77
2021/05/08 07:45:29;;;;;;;13.75;4.20;;;16.60;71.90;;;;;;4977896;28;20037;-77
2021/05/08 07:47:57;;;;;;;15.98;4.20;;;16.70;72.20;;;;;;4968599;28;20098;-76
2021/05/08 07:50:24;;;;;;;10.02;3.78;;;16.80;72.00;;;;;;4998240;28;20017;-79
2021/05/08 07:52:50;;;;;;;8.98;3.65;;;17.00;71.70;;;;;;4998535;28;20080;-78
2021/05/08 07:55:16;;;;;;;11.20;3.47;;;17.20;71.70;;;;;;4996327;28;20062;-76
2021/05/08 07:57:42;;;;;;;9.45;3.80;;;17.50;71.70;;;;;;4994849;28;20030;-78
2021/05/08 08:00:09;;;;;;;10.93;4.13;;;17.90;70.90;;;;;;4997847;28;20022;-78
2021/05/08 08:02:35;;;;;;;9.43;3.65;;;18.10;70.00;;;;;;4998217;28;20046;-72
2021/05/08 08:05:02;;;;;;;13.20;4.28;;;18.20;69.20;;;;;;4997887;28;20077;-75
2021/05/08 08:07:28;;;;;;;12.43;5.40;;;18.30;69.20;;;;;;4997980;28;20022;-78
2021/05/08 08:09:54;;;;;;;9.93;3.95;;;18.30;68.30;;;;;;4980181;28;20030;-79
2021/05/08 08:12:20;;;;;;;9.73;5.55;;;18.40;67.90;;;;;;4998085;28;20042;-78
2021/05/08 08:14:47;;;;;;;22.23;11.73;;;18.50;67.70;;;;;;4997659;28;20393;-78
2021/05/08 08:17:13;;;;;;;13.13;6.78;;;18.70;67.40;;;;;;4997807;28;20042;-80
2021/05/08 08:19:38;;;;;;;12.48;3.67;;;18.90;67.30;;;;;;4997967;28;20164;-77
2021/05/08 08:22:04;;;;;;;7.95;3.13;;;19.20;67.40;;;;;;4977103;28;20063;-78
2021/05/08 08:24:30;;;;;;;10.73;3.60;;;19.30;65.80;;;;;;4995854;28;20030;-83
2021/05/08 08:26:56;;;;;;;9.10;3.40;;;19.40;65.20;;;;;;4980821;28;20137;-81
2021/05/08 08:29:22;;;;;;;8.90;3.40;;;19.30;65.50;;;;;;4997412;28;20030;-81
2021/05/08 08:31:48;;;;;;;8.65;3.15;;;19.30;65.10;;;;;;4997960;28;20446;-78
2021/05/08 08:34:14;;;;;;;8.52;3.20;;;19.20;65.50;;;;;;4997670;28;20034;-79
2021/05/08 08:36:40;;;;;;;12.13;3.40;;;19.30;65.90;;;;;;4997853;28;20018;-81
2021/05/08 08:39:06;;;;;;;9.00;3.70;;;19.40;65.00;;;;;;4980399;28;20084;-80
2021/05/08 08:41:32;;;;;;;8.70;3.28;;;19.60;64.30;;;;;;4997630;28;20030;-79
2021/05/08 08:43:58;;;;;;;9.10;2.85;;;19.80;64.70;;;;;;4997591;28;20108;-80
2021/05/08 08:46:24;;;;;;;9.60;3.63;;;20.10;64.60;;;;;;4997573;28;20042;-80
2021/05/08 08:48:51;;;;;;;8.20;3.58;;;20.50;63.60;;;;;;4997815;28;20034;-78
2021/05/08 08:51:17;;;;;;;8.25;2.88;;;20.80;62.40;;;;;;4997617;28;20019;-79
2021/05/08 08:53:43;;;;;;;10.75;2.85;;;20.90;60.80;;;;;;4997560;28;20058;-79
2021/05/08 08:56:10;;;;;;;7.00;2.80;;;20.90;60.30;;;;;;5000740;28;20050;-78
2021/05/08 08:58:39;;;;;;;8.43;2.63;;;20.90;60.80;;;;;;5001591;28;20037;-76
2021/05/08 09:01:06;;;;;;;12.55;5.75;;;21.00;61.90;;;;;;5001445;28;20069;-76
2021/05/08 09:03:33;;;;;;;7.97;3.50;;;21.30;61.80;;;;;;5001102;28;20469;-78
2021/05/08 09:06:00;;;;;;;7.70;2.22;;;21.60;62.30;;;;;;5001016;28;20022;-79
2021/05/08 09:08:29;;;;;;;9.50;2.63;;;22.00;59.40;;;;;;5000105;28;20512;-76
2021/05/08 09:11:19;;;;;;;11.20;2.53;;;22.10;58.00;;;;;;5000682;28;20034;-79
2021/05/08 09:13:45;;;;;;;6.53;2.33;;;22.10;57.70;;;;;;4997773;28;20030;-79
2021/05/08 09:16:11;;;;;;;5.88;2.00;;;22.00;57.50;;;;;;5000444;28;20054;-77
2021/05/08 09:18:39;;;;;;;6.72;1.98;;;22.10;57.90;;;;;;5001108;28;20047;-79
2021/05/08 09:21:07;;;;;;;5.32;2.15;;;22.30;55.30;;;;;;4999420;28;20022;-79
2021/05/08 09:23:40;;;;;;;8.77;2.25;;;22.30;56.00;;;;;;4997684;28;20018;-74
2021/05/08 09:26:14;;;;;;;5.50;1.95;;;22.30;56.50;;;;;;5000040;28;20037;-76
2021/05/08 09:28:53;;;;;;;6.28;2.03;;;22.30;57.20;;;;;;5000587;28;20527;-77
2021/05/08 09:31:19;;;;;;;5.88;2.00;;;22.50;56.40;;;;;;4999107;28;20018;-74
2021/05/08 09:33:52;;;;;;;9.35;2.50;;;22.60;56.00;;;;;;5000466;28;20081;-75
2021/05/08 09:36:18;;;;;;;7.20;2.05;;;22.60;56.00;;;;;;5000576;28;20069;-77
2021/05/08 09:38:45;;;;;;;7.65;2.10;;;22.70;54.80;;;;;;5000459;28;20038;-77
2021/05/08 09:41:16;;;;;;;7.65;1.80;;;22.60;55.00;;;;;;4982313;28;20022;-81
2021/05/08 09:43:44;;;;;;;3.45;1.77;;;22.60;54.20;;;;;;4983080;28;20034;-84
2021/05/08 09:46:27;;;;;;;5.97;2.03;;;22.50;54.90;;;;;;5000216;28;20026;-84
2021/05/08 09:49:14;;;;;;;6.05;2.20;;;22.40;55.10;;;;;;5000150;28;20033;-83
2021/05/08 09:51:40;;;;;;;7.15;2.65;;;22.40;55.90;;;;;;4983439;28;20105;-84
2021/05/08 09:54:09;;;;;;;6.85;1.90;;;22.40;55.50;;;;;;4979435;28;20030;-83
2021/05/08 09:56:42;;;;;;;6.28;2.05;;;22.30;55.30;;;;;;4997554;28;20480;-79
2021/05/08 09:59:24;;;;;;;4.97;1.98;;;22.30;55.60;;;;;;4999785;28;20041;-81
2021/05/08 10:02:11;;;;;;;6.80;1.75;;;22.30;55.40;;;;;;5000065;28;20022;-79
2021/05/08 10:04:40;;;;;;;8.55;2.20;;;22.30;55.00;;;;;;4982219;28;20042;-80
2021/05/08 10:07:10;;;;;;;7.93;2.35;;;22.40;54.90;;;;;;5000021;28;20022;-82
2021/05/08 10:09:37;;;;;;;6.20;1.80;;;22.60;54.40;;;;;;4999350;28;20030;-82
2021/05/08 10:12:14;;;;;;;10.60;2.30;;;22.50;54.00;;;;;;4999704;28;20015;-82
2021/05/08 10:14:42;;;;;;;5.82;1.60;;;22.30;53.50;;;;;;4997428;28;20081;-82
2021/05/08 10:17:10;;;;;;;6.88;1.90;;;22.10;53.40;;;;;;4999164;28;20038;-83
2021/05/08 10:19:38;;;;;;;7.70;2.20;;;21.90;54.30;;;;;;4981855;28;20026;-78
2021/05/08 10:22:08;;;;;;;6.22;1.83;;;21.70;54.00;;;;;;4994599;28;20068;-79
2021/05/08 10:24:36;;;;;;;6.00;1.92;;;21.60;54.50;;;;;;4981547;28;20026;-80
2021/05/08 10:27:02;;;;;;;6.97;1.92;;;21.60;55.60;;;;;;4999659;28;20026;-81
2021/05/08 10:29:31;;;;;;;5.97;2.38;;;21.60;54.90;;;;;;4998971;28;20033;-81
2021/05/08 10:31:59;;;;;;;5.53;2.33;;;21.60;55.20;;;;;;4999339;28;20030;-82
2021/05/08 10:34:36;;;;;;;6.75;1.98;;;21.60;55.20;;;;;;4996165;28;20053;-83
2021/05/08 10:37:21;;;;;;;5.90;1.73;;;21.80;54.10;;;;;;4999324;28;20094;-81
2021/05/08 10:39:59;;;;;;;6.43;2.20;;;22.20;55.50;;;;;;4998727;28;20045;-82
2021/05/08 10:42:43;;;;;;;6.38;2.00;;;22.90;56.00;;;;;;4999184;28;20084;-81
2021/05/08 10:45:20;;;;;;;7.95;3.75;;;23.80;51.20;;;;;;4981200;28;20564;-82
2021/05/08 10:48:06;;;;;;;6.82;1.63;;;24.10;51.30;;;;;;4998920;28;20037;-82
2021/05/08 10:50:35;;;;;;;5.55;2.22;;;24.70;50.90;;;;;;4998893;28;20500;-82
2021/05/08 10:53:08;;;;;;;6.30;1.80;;;25.50;51.10;;;;;;4998950;28;20481;-77
2021/05/08 10:55:58;;;;;;;15.23;9.88;;;26.20;48.50;;;;;;4978897;28;20034;-78
2021/05/08 10:58:25;;;;;;;6.97;1.67;;;26.90;45.80;;;;;;4998186;28;20037;-82
2021/05/08 11:01:11;;;;;;;3.75;1.30;;;27.30;44.80;;;;;;4981313;28;20477;-78
2021/05/08 11:03:46;;;;;;;7.95;2.88;;;27.60;44.70;;;;;;4981299;28;20023;-78
2021/05/08 11:06:12;;;;;;;4.70;2.42;;;27.90;44.70;;;;;;4981538;28;20113;-79
2021/05/08 11:08:38;;;;;;;5.63;1.58;;;28.00;44.80;;;;;;4980953;28;20073;-79
2021/05/08 11:11:10;;;;;;;4.53;1.70;;;28.20;44.80;;;;;;4998529;28;20026;-79
2021/05/08 11:13:42;;;;;;;6.47;3.22;;;28.50;44.40;;;;;;4980965;28;20034;-80
2021/05/08 11:16:12;;;;;;;;;;;28.40;44.00;;;;;;4998911;28;20404;-76
2021/05/08 11:18:45;;;;;;;4.85;1.65;;;28.30;44.60;;;;;;4997590;28;20364;-80
2021/05/08 11:21:10;;;;;;;3.53;1.52;;;28.10;43.70;;;;;;4998044;28;20029;-78
2021/05/08 11:23:58;;;;;;;4.70;1.50;;;27.80;45.10;;;;;;4995657;28;20034;-79
2021/05/08 11:26:24;;;;;;;8.63;1.90;;;27.60;44.00;;;;;;4994676;28;20046;-78
2021/05/08 11:29:11;;;;;;;99.30;69.05;;;27.60;44.50;;;;;;4989006;28;20033;-79
2021/05/08 11:31:40;;;;;;;38.03;34.42;;;28.00;46.10;;;;;;4998196;28;20389;-79
2021/05/08 11:34:24;;;;;;;8.75;3.83;;;28.50;43.40;;;;;;4996704;28;20026;-78
2021/05/08 11:36:55;;;;;;;7.38;2.25;;;28.70;43.70;;;;;;4980595;28;20022;-77
2021/05/08 11:39:25;;;;;;;6.00;2.00;;;28.70;43.50;;;;;;4997814;28;20034;-78
2021/05/08 11:42:01;;;;;;;7.38;4.07;;;28.60;43.40;;;;;;4998407;28;20038;-78
2021/05/08 11:44:32;;;;;;;7.15;3.15;;;28.70;44.10;;;;;;4998050;28;20030;-79
2021/05/08 11:47:02;;;;;;;7.80;2.15;;;28.80;43.40;;;;;;4997750;28;20363;-76
2021/05/08 11:49:36;;;;;;;8.82;2.20;;;28.90;42.80;;;;;;4997859;28;20033;-77
2021/05/08 11:52:04;;;;;;;7.35;1.90;;;28.70;42.50;;;;;;4980408;28;20084;-76
2021/05/08 11:54:39;;;;;;;5.53;1.90;;;28.20;42.70;;;;;;4994723;28;20019;-77
2021/05/08 11:57:19;;;;;;;5.32;2.13;;;27.80;43.20;;;;;;4996728;28;20473;-77
2021/05/08 11:59:45;;;;;;;5.57;2.00;;;27.50;44.00;;;;;;4996932;28;20477;-76
2021/05/08 12:02:18;;;;;;;13.82;11.57;;;27.20;44.40;;;;;;4993344;28;20093;-77
2021/05/08 12:04:58;;;;;;;7.28;3.03;;;27.10;44.00;;;;;;4973219;28;20038;-77
2021/05/08 12:07:31;;;;;;;6.95;2.25;;;26.80;44.90;;;;;;4998061;28;20522;-78
2021/05/08 12:10:21;;;;;;;7.78;2.28;;;26.50;45.40;;;;;;4997607;28;20034;-70
2021/05/08 12:12:55;;;;;;;5.75;1.70;;;26.20;45.50;;;;;;4997511;28;20022;-71
2021/05/08 12:15:25;;;;;;;12.38;5.30;;;25.80;44.90;;;;;;4995364;28;20489;-74
2021/05/08 12:17:56;;;;;;;8.68;2.40;;;25.30;46.20;;;;;;4997609;28;20034;-73
2021/05/08 12:20:27;;;;;;;6.65;2.00;;;24.90;47.20;;;;;;4980274;28;20105;-77
2021/05/08 12:23:02;;;;;;;7.63;2.30;;;24.60;47.50;;;;;;4990356;28;20524;-73
2021/05/08 12:25:29;;;;;;;6.63;2.38;;;24.30;48.10;;;;;;4989056;28;20033;-71
2021/05/08 12:28:14;;;;;;;6.25;2.13;;;24.10;48.00;;;;;;4997802;28;20026;-70
2021/05/08 12:30:40;;;;;;;6.43;2.15;;;23.90;48.70;;;;;;4995916;28;20081;-71
2021/05/08 12:33:22;;;;;;;6.78;2.13;;;23.70;49.30;;;;;;5000895;28;20130;-72
2021/05/08 12:35:49;;;;;;;6.07;2.28;;;23.50;49.70;;;;;;4998430;28;20044;-71
2021/05/08 12:38:17;;;;;;;6.50;2.13;;;23.50;49.40;;;;;;4999674;28;20041;-71
2021/05/08 12:40:44;;;;;;;5.53;2.03;;;23.40;49.60;;;;;;4999664;28;20026;-71
2021/05/08 12:43:10;;;;;;;6.72;2.50;;;23.40;50.10;;;;;;4993278;28;20022;-70
2021/05/08 12:45:59;;;;;;;5.72;2.08;;;23.40;50.70;;;;;;4982406;28;20116;-71